createdAt,value
2023-01-08T00:01:11.433Z,87.52
2023-01-08T00:03:39.735Z,87.33
2023-01-08T00:06:11.857Z,85.77
2023-01-08T00:08:39.792Z,87.14
2023-01-08T00:11:07.934Z,85.45
2023-01-08T00:13:35.625Z,85.34
2023-01-08T00:16:09.385Z,88.32
2023-01-08T00:18:37.136Z,87.83
2023-01-08T00:21:05.503Z,88.62
2023-01-08T00:23:33.374Z,87.72
2023-01-08T00:26:06.151Z,87.34
2023-01-08T00:28:35.193Z,85.65
2023-01-08T00:31:10.391Z,85.10
2023-01-08T00:33:39.316Z,84.83
2023-01-08T00:36:12.117Z,85.80
2023-01-08T00:38:40.060Z,87.72
2023-01-08T00:41:07.738Z,85.94
2023-01-08T00:43:35.384Z,85.25
2023-01-08T00:46:03.804Z,84.90
2023-01-08T00:48:33.512Z,85.71
2023-01-08T00:51:03.423Z,88.34
2023-01-08T00:53:31.419Z,91.29
2023-01-08T00:56:04.414Z,93.70
2023-01-08T00:58:32.357Z,92.48
2023-01-08T01:00:59.994Z,91.09
2023-01-08T01:03:27.776Z,88.52
2023-01-08T01:06:05.806Z,85.62
2023-01-08T01:08:34.338Z,85.55
2023-01-08T01:11:07.411Z,86.33
2023-01-08T01:13:34.968Z,85.49
2023-01-08T01:16:03.702Z,87.56
2023-01-08T01:18:31.358Z,88.15
2023-01-08T01:20:59.060Z,86.91
2023-01-08T01:23:26.962Z,87.18
2023-01-08T01:25:54.612Z,90.83
2023-01-08T01:28:22.225Z,91.60
2023-01-08T01:30:57.450Z,89.58
2023-01-08T01:33:25.083Z,88.65
2023-01-08T01:36:00.265Z,89.45
2023-01-08T01:38:28.248Z,91.06
2023-01-08T01:40:56.263Z,89.13
2023-01-08T01:43:57.456Z,88.28
2023-01-08T01:46:38.519Z,88.72
2023-01-08T01:49:12.513Z,88.47
2023-01-08T01:51:45.487Z,90.51
2023-01-08T01:54:13.543Z,91.30
2023-01-08T01:56:42.901Z,91.23
2023-01-08T01:59:12.176Z,91.23
2023-01-08T02:01:41.670Z,91.09
2023-01-08T02:04:11.585Z,91.94
2023-01-08T02:06:55.169Z,90.97
2023-01-08T02:09:42.133Z,90.34
2023-01-08T02:12:18.474Z,90.33
2023-01-08T02:15:14.081Z,89.56
2023-01-08T02:18:03.443Z,88.76
2023-01-08T02:20:45.025Z,88.71
2023-01-08T02:23:38.127Z,89.19
2023-01-08T02:26:11.494Z,88.84
2023-01-08T02:29:05.260Z,89.22
2023-01-08T02:31:35.001Z,88.16
2023-01-08T02:34:03.073Z,89.25
2023-01-08T02:36:50.511Z,89.49
2023-01-08T02:39:45.665Z,89.38
2023-01-08T02:42:34.431Z,89.57
2023-01-08T02:45:20.609Z,90.02
2023-01-08T02:48:17.108Z,90.27
2023-01-08T02:50:56.745Z,90.73
2023-01-08T02:53:28.892Z,90.44
2023-01-08T02:56:01.531Z,89.86
2023-01-08T02:58:32.044Z,89.50
2023-01-08T03:01:04.101Z,89.41
2023-01-08T03:03:32.972Z,88.88
2023-01-08T03:06:07.839Z,88.65
2023-01-08T03:08:39.324Z,88.86
2023-01-08T03:11:10.515Z,89.42
2023-01-08T03:13:43.352Z,89.70
2023-01-08T03:16:21.688Z,88.92
2023-01-08T03:18:58.612Z,89.27
2023-01-08T03:21:27.252Z,89.30
2023-01-08T03:23:54.768Z,89.25
2023-01-08T03:26:26.342Z,89.49
2023-01-08T03:28:57.694Z,89.90
2023-01-08T03:31:28.621Z,89.65
2023-01-08T03:33:57.430Z,90.12
2023-01-08T03:36:29.451Z,89.83
2023-01-08T03:39:04.263Z,89.78
2023-01-08T03:41:35.994Z,89.09
2023-01-08T03:44:04.622Z,89.08
2023-01-08T03:46:36.783Z,89.23
2023-01-08T03:49:07.247Z,89.33
2023-01-08T03:51:46.708Z,88.77
2023-01-08T03:54:17.901Z,88.28
2023-01-08T03:56:45.987Z,88.25
2023-01-08T03:59:14.460Z,88.98
2023-01-08T04:01:42.616Z,88.75
2023-01-08T04:04:11.387Z,87.98
2023-01-08T04:06:39.013Z,88.43
2023-01-08T04:09:06.632Z,88.13
2023-01-08T04:11:34.786Z,88.42
2023-01-08T04:14:02.311Z,88.41
2023-01-08T04:16:29.834Z,86.75
2023-01-08T04:18:57.627Z,85.69
2023-01-08T04:21:25.180Z,85.57
2023-01-08T04:23:52.660Z,86.88
2023-01-08T04:26:20.432Z,87.16
2023-01-08T04:28:47.917Z,88.47
2023-01-08T04:31:15.493Z,88.05
2023-01-08T04:33:43.348Z,87.41
2023-01-08T04:36:11.125Z,87.02
2023-01-08T04:38:38.648Z,87.32
2023-01-08T04:41:06.673Z,88.37
2023-01-08T04:43:34.273Z,87.00
2023-01-08T04:46:03.428Z,89.35
2023-01-08T04:48:31.697Z,89.55
2023-01-08T04:51:00.673Z,89.08
2023-01-08T04:53:29.368Z,88.82
2023-01-08T04:55:57.143Z,87.22
2023-01-08T04:58:24.622Z,87.30
2023-01-08T05:00:52.094Z,87.29
2023-01-08T05:03:20.232Z,89.75
2023-01-08T05:05:49.878Z,91.47
2023-01-08T05:08:17.613Z,90.52
2023-01-08T05:10:45.396Z,88.37
2023-01-08T05:13:12.870Z,88.78
2023-01-08T05:15:40.411Z,87.73
2023-01-08T05:18:08.184Z,86.50
2023-01-08T05:20:35.747Z,85.58
2023-01-08T05:23:03.359Z,85.92
2023-01-08T05:25:31.127Z,86.01
2023-01-08T05:27:58.639Z,86.12
2023-01-08T05:30:26.109Z,85.39
2023-01-08T05:32:53.921Z,84.79
2023-01-08T05:35:21.400Z,84.90
2023-01-08T05:37:48.913Z,85.17
2023-01-08T05:40:16.793Z,84.65
2023-01-08T05:42:44.312Z,85.70
2023-01-08T05:45:11.986Z,85.99
2023-01-08T05:47:40.540Z,85.27
2023-01-08T05:50:08.434Z,85.27
2023-01-08T05:52:35.952Z,85.79
2023-01-08T05:55:03.960Z,86.55
2023-01-08T05:57:31.554Z,85.75
2023-01-08T05:59:59.067Z,85.42
2023-01-08T06:02:27.021Z,86.51
2023-01-08T06:04:54.860Z,87.18
2023-01-08T06:07:22.373Z,88.58
2023-01-08T06:09:49.986Z,92.54
2023-01-08T06:12:18.524Z,93.33
2023-01-08T06:14:46.189Z,94.10
2023-01-08T06:17:15.019Z,94.56
2023-01-08T06:19:42.856Z,89.86
2023-01-08T06:22:10.344Z,87.88
2023-01-08T06:24:37.844Z,87.02
2023-01-08T06:27:05.634Z,88.14
2023-01-08T06:29:33.749Z,92.27
2023-01-08T06:32:01.356Z,93.07
2023-01-08T06:34:29.222Z,92.77
2023-01-08T06:36:56.719Z,92.55
2023-01-08T06:39:24.222Z,92.45
2023-01-08T06:41:52.048Z,92.30
2023-01-08T06:44:19.852Z,92.22
2023-01-08T06:46:47.433Z,92.25
2023-01-08T06:49:15.282Z,91.95
2023-01-08T06:51:42.813Z,91.97
2023-01-08T06:54:11.578Z,92.73
2023-01-08T06:56:52.970Z,92.52
2023-01-08T06:59:20.846Z,93.98
2023-01-08T07:01:49.054Z,93.79
2023-01-08T07:04:17.740Z,87.16
2023-01-08T07:06:45.374Z,92.23
2023-01-08T07:09:14.893Z,92.82
2023-01-08T07:11:42.650Z,92.98
2023-01-08T07:14:10.293Z,92.75
2023-01-08T07:16:38.178Z,92.82
2023-01-08T07:19:05.876Z,93.57
2023-01-08T07:21:33.403Z,92.50
2023-01-08T07:24:01.181Z,91.20
2023-01-08T07:26:28.726Z,92.32
2023-01-08T07:28:56.216Z,92.20
2023-01-08T07:31:24.399Z,92.32
2023-01-08T07:33:52.224Z,92.19
2023-01-08T07:36:22.540Z,92.07
2023-01-08T07:38:50.464Z,92.03
2023-01-08T07:41:18.389Z,92.13
2023-01-08T07:43:47.702Z,92.20
2023-01-08T07:46:16.531Z,91.96
2023-01-08T07:48:44.089Z,91.90
2023-01-08T07:51:11.608Z,91.80
2023-01-08T07:53:39.543Z,91.60
2023-01-08T07:56:10.055Z,91.42
2023-01-08T07:58:38.541Z,91.37
2023-01-08T08:01:10.343Z,91.12
2023-01-08T08:03:39.021Z,90.89
2023-01-08T08:06:07.209Z,90.54
2023-01-08T08:08:35.662Z,90.05
2023-01-08T08:11:03.525Z,89.73
2023-01-08T08:13:31.031Z,88.88
2023-01-08T08:16:05.624Z,88.17
2023-01-08T08:18:33.501Z,87.58
2023-01-08T08:21:01.104Z,85.72
2023-01-08T08:23:28.687Z,83.08
2023-01-08T08:25:56.453Z,82.49
2023-01-08T08:28:23.905Z,82.66
2023-01-08T08:30:51.827Z,82.43
2023-01-08T08:33:19.716Z,82.31
2023-01-08T08:35:51.728Z,81.55
2023-01-08T08:38:19.491Z,81.10
2023-01-08T08:40:47.275Z,80.23
2023-01-08T08:43:14.830Z,79.14
2023-01-08T08:45:42.444Z,77.69
2023-01-08T08:48:11.347Z,77.18
2023-01-08T08:50:39.620Z,75.73
2023-01-08T08:53:07.231Z,74.79
2023-01-08T08:55:35.155Z,73.85
2023-01-08T08:58:11.199Z,72.46
2023-01-08T09:00:40.705Z,72.72
2023-01-08T09:03:14.997Z,70.50
2023-01-08T09:05:43.226Z,71.33
2023-01-08T09:08:12.709Z,71.95
2023-01-08T09:10:42.497Z,71.74
2023-01-08T09:13:10.999Z,71.45
2023-01-08T09:15:38.718Z,70.65
2023-01-08T09:18:06.684Z,70.06
2023-01-08T09:20:34.489Z,70.00
2023-01-08T09:23:03.210Z,68.53
2023-01-08T09:25:31.357Z,68.60
2023-01-08T09:28:05.111Z,68.43
2023-01-08T09:30:33.785Z,67.55
2023-01-08T09:33:03.277Z,67.57
2023-01-08T09:35:34.402Z,67.76
2023-01-08T09:38:02.349Z,67.54
2023-01-08T09:40:39.733Z,67.47
2023-01-08T09:43:14.935Z,67.05
2023-01-08T09:45:46.324Z,67.30
2023-01-08T09:48:17.408Z,67.84
2023-01-08T09:50:45.162Z,67.57
2023-01-08T09:53:15.511Z,68.89
2023-01-08T09:55:44.060Z,69.51
2023-01-08T09:58:34.346Z,68.86
2023-01-08T10:01:03.372Z,69.39
2023-01-08T10:03:50.707Z,69.25
2023-01-08T10:06:18.345Z,68.73
2023-01-08T10:11:19.123Z,68.19
2023-01-08T10:13:55.171Z,68.22
2023-01-08T10:16:28.661Z,69.01
2023-01-08T10:18:58.379Z,66.24
2023-01-08T10:21:33.082Z,66.51
2023-01-08T10:24:00.908Z,65.49
2023-01-08T10:26:36.484Z,64.62
2023-01-08T10:29:14.078Z,63.29
2023-01-08T10:31:54.192Z,61.52
2023-01-08T10:34:27.724Z,61.11
2023-01-08T10:36:56.466Z,60.16
2023-01-08T10:39:27.453Z,60.51
2023-01-08T10:41:58.750Z,59.61
2023-01-08T10:44:26.813Z,58.63
2023-01-08T10:46:58.361Z,59.03
2023-01-08T10:49:29.265Z,58.48
2023-01-08T10:51:56.976Z,58.72
2023-01-08T10:54:33.612Z,57.55
2023-01-08T10:57:02.719Z,57.15
2023-01-08T10:59:32.012Z,56.58
2023-01-08T11:02:28.530Z,56.19
2023-01-08T11:04:56.742Z,55.27
2023-01-08T11:07:24.601Z,56.07
2023-01-08T11:09:53.844Z,55.33
2023-01-08T11:12:42.198Z,55.87
2023-01-08T11:15:17.817Z,54.89
2023-01-08T11:17:46.089Z,54.51
2023-01-08T11:20:28.858Z,54.24
2023-01-08T11:23:13.228Z,54.95
2023-01-08T11:25:43.457Z,54.97
2023-01-08T11:28:17.283Z,54.52
2023-01-08T11:30:53.816Z,54.22
2023-01-08T11:33:24.267Z,54.35
2023-01-08T11:36:03.071Z,54.38
2023-01-08T11:38:30.904Z,54.18
2023-01-08T11:41:01.365Z,54.06
2023-01-08T11:43:42.105Z,54.54
2023-01-08T11:46:28.382Z,54.57
2023-01-08T11:49:04.962Z,54.70
2023-01-08T11:51:40.792Z,54.35
2023-01-08T11:54:14.501Z,53.96
2023-01-08T11:56:49.944Z,53.87
2023-01-08T11:59:29.574Z,53.70
2023-01-08T12:02:06.381Z,53.52
2023-01-08T12:04:54.289Z,53.84
2023-01-08T12:07:50.414Z,53.63
2023-01-08T12:10:30.586Z,53.37
2023-01-08T12:13:23.309Z,53.75
2023-01-08T12:16:06.184Z,53.36
2023-01-08T12:18:52.677Z,53.16
2023-01-08T12:21:32.507Z,53.25
2023-01-08T12:24:18.761Z,53.20
2023-01-08T12:27:54.559Z,53.09
2023-01-08T12:30:55.353Z,53.46
2023-01-08T12:33:54.607Z,53.80
2023-01-08T12:36:32.367Z,53.33
2023-01-08T12:39:06.220Z,53.42
2023-01-08T12:41:36.327Z,53.83
2023-01-08T12:44:10.121Z,53.96
2023-01-08T12:46:47.960Z,52.88
2023-01-08T12:49:23.775Z,52.14
2023-01-08T12:52:15.992Z,52.86
2023-01-08T12:55:17.289Z,52.98
2023-01-08T12:57:54.178Z,52.76
2023-01-08T13:00:36.322Z,53.00
2023-01-08T13:03:06.481Z,53.11
2023-01-08T13:05:37.142Z,53.66
2023-01-08T13:08:08.018Z,53.30
2023-01-08T13:10:57.790Z,52.86
2023-01-08T13:13:31.538Z,52.61
2023-01-08T13:16:11.264Z,52.69
2023-01-08T13:18:39.278Z,52.64
2023-01-08T13:21:11.869Z,52.04
2023-01-08T13:23:39.470Z,52.87
2023-01-08T13:26:07.788Z,52.60
2023-01-08T13:28:35.236Z,53.76
2023-01-08T13:31:22.299Z,53.00
2023-01-08T13:33:54.661Z,53.10
2023-01-08T13:36:27.692Z,53.69
2023-01-08T13:39:05.429Z,53.43
2023-01-08T13:41:36.004Z,53.81
2023-01-08T13:44:16.235Z,53.65
2023-01-08T13:46:52.746Z,54.36
2023-01-08T13:49:27.394Z,54.58
2023-01-08T13:51:55.379Z,55.57
2023-01-08T13:54:40.069Z,55.72
2023-01-08T13:57:15.171Z,55.94
2023-01-08T13:59:57.653Z,56.27
2023-01-08T14:02:29.903Z,56.68
2023-01-08T14:05:00.416Z,56.90
2023-01-08T14:07:28.023Z,57.20
2023-01-08T14:10:08.705Z,57.30
2023-01-08T14:12:36.614Z,57.47
2023-01-08T14:15:09.942Z,57.79
2023-01-08T14:17:37.899Z,58.22
2023-01-08T14:20:11.365Z,58.58
2023-01-08T14:22:42.043Z,58.99
2023-01-08T14:25:17.079Z,59.61
2023-01-08T14:28:05.601Z,60.07
2023-01-08T14:30:33.474Z,60.20
2023-01-08T14:33:02.383Z,60.36
2023-01-08T14:35:34.310Z,60.59
2023-01-08T14:38:05.862Z,60.74
2023-01-08T14:40:41.702Z,60.79
2023-01-08T14:43:16.245Z,60.80
2023-01-08T14:45:53.769Z,60.91
2023-01-08T14:48:28.821Z,61.26
2023-01-08T14:51:09.194Z,61.62
2023-01-08T14:53:46.314Z,61.56
2023-01-08T14:56:17.655Z,61.91
2023-01-08T14:58:46.889Z,62.13
2023-01-08T15:01:23.066Z,62.19
2023-01-08T15:03:52.657Z,62.70
2023-01-08T15:06:29.527Z,63.02
2023-01-08T15:08:58.540Z,63.12
2023-01-08T15:11:49.350Z,63.37
2023-01-08T15:14:25.315Z,63.83
2023-01-08T15:16:56.380Z,64.03
2023-01-08T15:19:29.704Z,64.27
2023-01-08T15:22:00.537Z,64.54
2023-01-08T15:24:34.456Z,64.74
2023-01-08T15:27:12.708Z,65.08
2023-01-08T15:29:53.136Z,65.11
2023-01-08T15:32:23.324Z,65.39
2023-01-08T15:34:51.193Z,65.89
2023-01-08T15:37:18.753Z,66.31
2023-01-08T15:39:46.252Z,66.53
2023-01-08T15:42:43.889Z,66.89
2023-01-08T15:45:14.852Z,67.04
2023-01-08T15:47:42.695Z,67.41
2023-01-08T15:50:10.864Z,67.50
2023-01-08T15:52:40.578Z,67.82
2023-01-08T15:55:19.074Z,67.83
2023-01-08T15:57:47.277Z,67.86
2023-01-08T16:00:16.758Z,67.67
2023-01-08T16:02:49.745Z,67.79
2023-01-08T16:05:19.162Z,67.71
2023-01-08T16:07:47.509Z,67.63
2023-01-08T16:10:16.566Z,67.43
2023-01-08T16:12:44.292Z,67.07
2023-01-08T16:15:13.433Z,67.02
2023-01-08T16:17:41.623Z,67.16
2023-01-08T16:20:10.167Z,67.15
2023-01-08T16:22:38.524Z,66.94
2023-01-08T16:25:07.021Z,67.08
2023-01-08T16:27:34.591Z,67.09
2023-01-08T16:30:02.445Z,67.30
2023-01-08T16:32:29.985Z,67.02
2023-01-08T16:34:57.468Z,66.95
2023-01-08T16:37:25.296Z,66.89
2023-01-08T16:39:52.818Z,66.92
2023-01-08T16:42:20.297Z,67.15
2023-01-08T16:44:48.169Z,67.10
2023-01-08T16:47:15.842Z,67.10
2023-01-08T16:49:43.418Z,67.11
2023-01-08T16:52:11.329Z,67.17
2023-01-08T16:54:38.948Z,67.25
2023-01-08T16:57:06.443Z,67.04
2023-01-08T16:59:34.313Z,67.07
2023-01-08T17:02:01.882Z,67.26
2023-01-08T17:04:30.021Z,67.27
2023-01-08T17:06:58.239Z,67.12
2023-01-08T17:09:26.255Z,67.10
2023-01-08T17:11:53.814Z,67.11
2023-01-08T17:14:21.700Z,67.26
2023-01-08T17:16:49.300Z,67.43
2023-01-08T17:19:17.556Z,67.36
2023-01-08T17:21:46.103Z,67.47
2023-01-08T17:24:14.959Z,67.70
2023-01-08T17:26:42.727Z,67.73
2023-01-08T17:29:10.564Z,67.90
2023-01-08T17:31:40.946Z,67.76
2023-01-08T17:34:13.103Z,68.15
2023-01-08T17:36:41.382Z,68.08
2023-01-08T17:39:11.202Z,68.19
2023-01-08T17:41:57.413Z,68.34
2023-01-08T17:44:26.561Z,68.28
2023-01-08T17:46:54.070Z,68.41
2023-01-08T17:49:21.586Z,68.63
2023-01-08T17:51:49.414Z,68.91
2023-01-08T17:54:17.269Z,69.15
2023-01-08T17:56:44.894Z,69.47
2023-01-08T17:59:18.079Z,69.74
2023-01-08T18:01:46.162Z,69.93
2023-01-08T18:04:15.383Z,70.03
2023-01-08T18:06:43.798Z,70.10
2023-01-08T18:09:12.606Z,70.35
2023-01-08T18:11:42.286Z,70.51
2023-01-08T18:14:12.637Z,70.59
2023-01-08T18:16:45.492Z,70.85
2023-01-08T18:19:13.471Z,71.05
2023-01-08T18:21:41.578Z,71.31
2023-01-08T18:24:09.928Z,71.39
2023-01-08T18:26:38.018Z,71.56
2023-01-08T18:29:06.160Z,71.78
2023-01-08T18:31:34.386Z,71.65
2023-01-08T18:34:03.797Z,71.68
2023-01-08T18:36:31.873Z,71.70
2023-01-08T18:39:00.230Z,71.76
2023-01-08T18:41:46.738Z,71.84
2023-01-08T18:44:14.963Z,71.98
2023-01-08T18:46:42.515Z,72.02
2023-01-08T18:49:10.027Z,72.07
2023-01-08T18:51:37.849Z,72.14
2023-01-08T18:54:05.411Z,72.07
2023-01-08T18:56:35.642Z,72.20
2023-01-08T18:59:05.334Z,72.17
2023-01-08T19:01:35.398Z,72.35
2023-01-08T19:04:04.064Z,72.27
2023-01-08T19:06:31.612Z,72.19
2023-01-08T19:08:59.771Z,72.38
2023-01-08T19:11:27.853Z,72.31
2023-01-08T19:13:58.526Z,72.33
2023-01-08T19:16:27.587Z,72.29
2023-01-08T19:18:56.883Z,72.41
2023-01-08T19:21:24.640Z,72.22
2023-01-08T19:23:53.357Z,72.06
2023-01-08T19:26:21.219Z,71.98
2023-01-08T19:28:48.945Z,71.85
2023-01-08T19:31:18.237Z,71.76
2023-01-08T19:33:46.794Z,71.71
2023-01-08T19:36:16.507Z,71.70
2023-01-08T19:38:44.840Z,71.59
2023-01-08T19:41:32.201Z,71.64
2023-01-08T19:44:00.061Z,71.62
2023-01-08T19:46:28.769Z,71.55
2023-01-08T19:49:00.431Z,71.40
2023-01-08T19:51:30.047Z,71.60
2023-01-08T19:53:58.267Z,71.42
2023-01-08T19:56:26.025Z,71.34
2023-01-08T19:58:56.269Z,71.20
2023-01-08T20:01:26.342Z,71.20
2023-01-08T20:03:55.355Z,71.14
2023-01-08T20:06:25.103Z,71.18
2023-01-08T20:08:56.415Z,71.10
2023-01-08T20:11:24.672Z,71.01
2023-01-08T20:13:52.826Z,71.06
2023-01-08T20:16:21.560Z,71.19
2023-01-08T20:18:49.888Z,71.17
2023-01-08T20:21:23.186Z,71.15
2023-01-08T20:24:03.522Z,70.99
2023-01-08T20:26:31.954Z,70.88
2023-01-08T20:28:59.889Z,71.01
2023-01-08T20:31:30.701Z,71.11
2023-01-08T20:33:59.407Z,71.32
2023-01-08T20:36:29.721Z,71.01
2023-01-08T20:39:00.149Z,70.87
2023-01-08T20:41:28.951Z,70.84
2023-01-08T20:43:57.499Z,70.72
2023-01-08T20:46:30.168Z,70.68
2023-01-08T20:48:59.991Z,70.64
2023-01-08T20:51:27.599Z,70.67
2023-01-08T20:53:55.101Z,70.77
2023-01-08T20:56:22.956Z,70.90
2023-01-08T20:58:51.569Z,70.93
2023-01-08T21:01:22.273Z,70.96
2023-01-08T21:03:53.719Z,70.98
2023-01-08T21:06:23.673Z,70.89
2023-01-08T21:08:53.989Z,70.90
2023-01-08T21:11:23.056Z,71.32
2023-01-08T21:13:51.472Z,71.45
2023-01-08T21:16:23.104Z,71.67
2023-01-08T21:18:51.952Z,71.62
2023-01-08T21:21:21.983Z,71.58
2023-01-08T21:23:50.570Z,71.45
2023-01-08T21:26:19.142Z,71.59
2023-01-08T21:28:49.687Z,71.69
2023-01-08T21:31:20.375Z,71.81
2023-01-08T21:33:49.314Z,72.02
2023-01-08T21:36:22.106Z,71.79
2023-01-08T21:38:50.681Z,71.78
2023-01-08T21:41:39.847Z,71.83
2023-01-08T21:44:38.287Z,71.89
2023-01-08T21:47:12.314Z,71.89
2023-01-08T21:49:40.651Z,71.85
2023-01-08T21:52:28.969Z,71.76
2023-01-08T21:54:58.285Z,71.70
2023-01-08T21:57:28.076Z,71.70
2023-01-08T21:59:55.928Z,71.59
2023-01-08T22:02:24.885Z,71.51
2023-01-08T22:04:56.451Z,71.78
2023-01-08T22:07:25.209Z,72.12
2023-01-08T22:09:53.288Z,72.40
2023-01-08T22:12:22.779Z,72.19
2023-01-08T22:14:53.547Z,72.56
2023-01-08T22:17:25.660Z,72.14
2023-01-08T22:19:53.651Z,71.87
2023-01-08T22:22:21.675Z,72.13
2023-01-08T22:24:51.929Z,72.00
2023-01-08T22:27:19.556Z,72.17
2023-01-08T22:29:48.311Z,72.39
2023-01-08T22:32:15.853Z,72.53
2023-01-08T22:34:43.339Z,72.81
2023-01-08T22:37:11.168Z,72.79
2023-01-08T22:39:38.675Z,73.00
2023-01-08T22:42:06.204Z,73.33
2023-01-08T22:44:34.187Z,73.32
2023-01-08T22:47:02.821Z,73.30
2023-01-08T22:49:30.427Z,73.37
2023-01-08T22:51:59.023Z,73.42
2023-01-08T22:54:26.614Z,73.38
2023-01-08T22:56:54.106Z,73.46
2023-01-08T22:59:21.960Z,73.35
2023-01-08T23:01:49.553Z,73.18
2023-01-08T23:04:17.212Z,73.05
2023-01-08T23:06:45.130Z,73.06
2023-01-08T23:09:12.656Z,73.05
2023-01-08T23:11:40.243Z,73.37
2023-01-08T23:14:10.588Z,73.79
2023-01-08T23:16:38.237Z,74.14
2023-01-08T23:19:06.465Z,75.05
2023-01-08T23:21:36.433Z,75.36
2023-01-08T23:24:04.658Z,75.71
2023-01-08T23:26:32.377Z,76.14
2023-01-08T23:29:00.765Z,76.39
2023-01-08T23:31:29.854Z,76.59
2023-01-08T23:33:58.023Z,76.58
2023-01-08T23:36:26.370Z,76.63
2023-01-08T23:38:55.859Z,76.42
2023-01-08T23:41:33.040Z,76.28
2023-01-08T23:44:05.431Z,76.17
2023-01-08T23:46:33.829Z,76.05
2023-01-08T23:49:01.385Z,75.91
2023-01-08T23:51:29.308Z,76.06
2023-01-08T23:53:56.881Z,76.17
2023-01-08T23:56:24.547Z,76.20
2023-01-08T23:58:53.381Z,76.36
